Time;durP1;ratioP1;P1;durP2;ratioP2;P2;SDS_P1;SDS_P2;PMS_P1;PMS_P2;Temp;Humidity;BMP_temperature;BMP_pressure;BME280_temperature;BME280_humidity;BME280_pressure;Samples;Min_cycle;Max_cycle;Signal;HPM_P1;HPM_P2
2022/03/03 00:01:56;;;;;;;21.83;10.70;;;5.20;99.90;;;;;;5058704;28;20029;-86
2022/03/03 00:04:22;;;;;;;18.83;11.35;;;5.20;99.90;;;;;;5068361;28;20052;-86
2022/03/03 00:06:48;;;;;;;19.02;10.95;;;5.10;99.90;;;;;;5074915;28;20025;-86
2022/03/03 00:09:14;;;;;;;19.95;11.90;;;5.10;99.90;;;;;;5074905;28;20074;-87
2022/03/03 00:11:40;;;;;;;18.30;11.23;;;5.10;99.90;;;;;;5074902;28;20403;-86
2022/03/03 00:14:05;;;;;;;20.52;11.63;;;5.10;99.90;;;;;;5074856;28;20034;-86
2022/03/03 00:16:31;;;;;;;17.23;11.02;;;5.10;99.90;;;;;;5074900;28;20013;-86
2022/03/03 00:18:57;;;;;;;17.90;11.48;;;5.10;99.90;;;;;;5074789;28;20107;-86
2022/03/03 00:21:23;;;;;;;18.52;11.25;;;5.10;99.90;;;;;;5074773;28;20028;-87
2022/03/03 00:23:49;;;;;;;21.42;11.52;;;5.10;99.90;;;;;;5074918;28;20031;-86
2022/03/03 00:26:15;;;;;;;17.83;10.48;;;5.10;99.90;;;;;;5074796;28;20498;-86
2022/03/03 00:28:41;;;;;;;17.23;11.00;;;5.10;99.90;;;;;;5076023;28;20020;-86
2022/03/03 00:31:07;;;;;;;21.35;11.38;;;5.10;99.90;;;;;;5076022;28;20187;-87
2022/03/03 00:33:33;;;;;;;21.52;11.38;;;5.10;99.90;;;;;;5074682;28;20115;-86
2022/03/03 00:35:59;;;;;;;19.98;11.48;;;5.10;99.90;;;;;;5074539;28;20020;-86
2022/03/03 00:38:24;;;;;;;20.52;10.95;;;5.10;99.90;;;;;;5074748;28;20024;-87
2022/03/03 00:40:50;;;;;;;17.58;10.50;;;5.10;99.90;;;;;;5074515;28;20016;-87
2022/03/03 00:43:16;;;;;;;19.70;10.75;;;5.10;99.90;;;;;;5074465;28;20056;-86
2022/03/03 00:45:42;;;;;;;20.23;11.27;;;5.00;99.90;;;;;;5074482;28;20028;-86
2022/03/03 00:48:07;;;;;;;19.27;11.23;;;5.00;99.90;;;;;;5074346;28;20025;-87
2022/03/03 00:50:33;;;;;;;18.08;11.20;;;5.00;99.90;;;;;;5074162;28;20069;-87
2022/03/03 00:52:59;;;;;;;20.05;11.30;;;5.00;99.90;;;;;;5075541;28;20025;-87
2022/03/03 00:55:25;;;;;;;17.50;11.38;;;5.00;99.90;;;;;;5074284;28;20021;-87
2022/03/03 00:57:51;;;;;;;15.90;10.30;;;5.00;99.90;;;;;;5074218;28;20468;-87
2022/03/03 01:00:18;;;;;;;20.33;11.23;;;5.00;99.90;;;;;;5074068;28;20027;-87
2022/03/03 01:02:45;;;;;;;16.75;10.38;;;5.00;99.90;;;;;;5074053;28;20043;-87
2022/03/03 01:05:11;;;;;;;21.48;11.55;;;5.00;99.90;;;;;;5057452;28;20039;-87
2022/03/03 01:07:36;;;;;;;16.20;9.77;;;5.00;99.90;;;;;;5057490;28;20024;-87
2022/03/03 01:10:04;;;;;;;19.20;11.20;;;5.00;99.90;;;;;;5075220;28;20066;-87
2022/03/03 01:12:29;;;;;;;18.83;10.75;;;5.00;99.90;;;;;;5057298;28;20488;-87
2022/03/03 01:14:55;;;;;;;17.90;10.85;;;5.00;99.90;;;;;;5057872;28;20017;-87
2022/03/03 01:17:21;;;;;;;21.40;11.40;;;5.00;99.90;;;;;;5057210;28;20082;-87
2022/03/03 01:19:46;;;;;;;18.15;10.68;;;5.00;99.90;;;;;;5057270;28;20047;-87
2022/03/03 01:22:12;;;;;;;19.30;10.32;;;5.00;99.90;;;;;;5057195;28;20017;-87
2022/03/03 01:24:38;;;;;;;17.60;10.70;;;5.00;99.90;;;;;;5057392;28;20025;-87
2022/03/03 01:27:04;;;;;;;21.40;11.82;;;4.90;99.90;;;;;;5057078;28;20051;-87
2022/03/03 01:29:29;;;;;;;18.95;11.35;;;4.90;99.90;;;;;;5057049;28;20028;-88
2022/03/03 01:31:55;;;;;;;20.27;11.80;;;4.90;99.90;;;;;;5057279;28;20163;-87
2022/03/03 01:34:21;;;;;;;18.55;11.57;;;4.90;99.90;;;;;;5056880;28;20025;-87
2022/03/03 01:36:46;;;;;;;16.90;10.52;;;4.90;99.90;;;;;;5074767;28;20021;-88
2022/03/03 01:39:12;;;;;;;18.73;10.50;;;4.90;99.90;;;;;;5056728;28;20017;-87
2022/03/03 01:41:40;;;;;;;16.63;10.57;;;4.90;99.90;;;;;;5056824;28;20028;-87
2022/03/03 01:44:06;;;;;;;19.02;10.85;;;4.90;99.90;;;;;;5057857;28;20024;-88
2022/03/03 01:46:32;;;;;;;18.42;11.02;;;4.90;99.90;;;;;;5056674;28;20563;-88
2022/03/03 01:48:58;;;;;;;17.95;11.10;;;4.90;99.90;;;;;;5056791;28;20024;-87
2022/03/03 01:51:24;;;;;;;18.45;11.52;;;4.90;99.90;;;;;;5056516;28;20537;-88
2022/03/03 01:53:50;;;;;;;17.83;11.60;;;4.90;99.90;;;;;;5056350;28;20031;-88
2022/03/03 01:56:16;;;;;;;18.17;11.75;;;4.90;99.90;;;;;;5056353;28;20024;-87
2022/03/03 01:58:43;;;;;;;19.70;11.23;;;4.80;99.90;;;;;;5056634;28;20016;-87
2022/03/03 02:01:09;;;;;;;16.52;10.25;;;4.80;99.90;;;;;;5056466;28;20025;-88
2022/03/03 02:03:34;;;;;;;20.10;11.98;;;4.80;99.90;;;;;;5059338;28;20072;-88
2022/03/03 02:06:00;;;;;;;18.02;11.35;;;4.80;99.90;;;;;;5073113;28;20021;-88
2022/03/03 02:08:27;;;;;;;16.95;10.45;;;4.80;99.90;;;;;;5073037;28;20035;-88
2022/03/03 02:10:53;;;;;;;17.58;10.52;;;4.80;99.90;;;;;;5072866;28;20480;-87
2022/03/03 02:13:19;;;;;;;16.40;10.68;;;4.80;99.90;;;;;;5072851;28;20107;-88
2022/03/03 02:15:52;;;;;;;18.52;11.20;;;4.80;99.90;;;;;;5072789;28;20059;-88
2022/03/03 02:18:18;;;;;;;19.65;11.27;;;4.80;99.90;;;;;;5072807;28;20052;-88
2022/03/03 02:20:44;;;;;;;19.13;11.93;;;4.80;99.90;;;;;;5072962;28;20017;-87
2022/03/03 02:23:10;;;;;;;18.90;11.05;;;4.80;99.90;;;;;;5073084;28;20046;-88
2022/03/03 02:25:35;;;;;;;19.90;10.45;;;4.80;99.90;;;;;;5073337;28;20468;-88
2022/03/03 02:28:01;;;;;;;19.92;11.32;;;4.80;99.90;;;;;;5074069;28;20032;-88
2022/03/03 02:30:27;;;;;;;19.52;10.75;;;4.80;99.90;;;;;;5072891;28;20046;-88
2022/03/03 02:32:53;;;;;;;18.67;11.00;;;4.80;99.90;;;;;;5073408;28;20032;-89
2022/03/03 02:35:19;;;;;;;18.52;11.90;;;4.80;99.90;;;;;;5072952;28;20065;-88
2022/03/03 02:37:46;;;;;;;19.70;11.50;;;4.70;99.90;;;;;;5073024;28;20028;-88
2022/03/03 02:40:21;;;;;;;19.45;11.50;;;4.70;99.90;;;;;;5072805;28;20021;-89
2022/03/03 02:42:54;;;;;;;18.80;11.00;;;4.70;99.90;;;;;;5073037;28;20043;-89
2022/03/03 02:45:20;;;;;;;19.10;11.15;;;4.70;99.90;;;;;;5072872;28;20070;-89
2022/03/03 02:47:48;;;;;;;16.80;11.00;;;4.70;99.90;;;;;;5073002;28;20021;-89
2022/03/03 02:50:16;;;;;;;16.40;10.27;;;4.70;99.90;;;;;;5073987;28;20027;-89
2022/03/03 02:52:43;;;;;;;17.80;11.13;;;4.70;99.90;;;;;;5072719;28;20071;-89
2022/03/03 02:55:10;;;;;;;17.25;11.50;;;4.70;99.90;;;;;;5072627;28;20107;-89
2022/03/03 02:57:54;;;;;;;15.20;10.70;;;4.70;99.90;;;;;;5073040;28;20124;-89
2022/03/03 03:00:39;;;;;;;22.48;11.68;;;4.70;99.90;;;;;;5072839;28;20021;-90
2022/03/03 03:03:05;;;;;;;23.02;11.63;;;4.60;99.90;;;;;;5072712;28;20053;-89
2022/03/03 03:05:30;;;;;;;19.25;11.23;;;4.70;99.90;;;;;;5056284;28;20447;-89
2022/03/03 03:07:56;;;;;;;17.00;10.45;;;4.60;99.90;;;;;;5056298;28;20021;-89
2022/03/03 03:10:23;;;;;;;19.92;10.82;;;4.60;99.90;;;;;;5056325;28;20047;-89
2022/03/03 03:12:49;;;;;;;19.13;11.43;;;4.70;99.90;;;;;;5056015;28;20085;-89
2022/03/03 03:15:15;;;;;;;19.20;10.85;;;4.60;99.90;;;;;;5058320;28;20464;-90
2022/03/03 03:17:40;;;;;;;19.75;11.63;;;4.60;99.90;;;;;;5060137;28;20033;-90
2022/03/03 03:20:07;;;;;;;19.48;11.57;;;4.60;99.90;;;;;;5059846;28;20418;-89
2022/03/03 03:22:36;;;;;;;19.42;11.50;;;4.60;99.90;;;;;;5060008;28;20369;-90
2022/03/03 03:25:10;;;;;;;17.58;11.32;;;4.60;99.90;;;;;;5059974;28;20246;-89
2022/03/03 03:27:37;;;;;;;18.65;11.02;;;4.60;99.90;;;;;;5060202;28;20078;-90
2022/03/03 03:30:05;;;;;;;18.80;11.30;;;4.60;99.90;;;;;;5059794;28;20468;-89
2022/03/03 03:32:31;;;;;;;20.27;11.20;;;4.60;99.90;;;;;;5059805;28;20027;-90
2022/03/03 03:34:57;;;;;;;19.90;11.23;;;4.60;99.90;;;;;;5060080;28;20032;-90
2022/03/03 03:37:23;;;;;;;20.58;11.35;;;4.60;99.90;;;;;;5059679;28;20030;-90
2022/03/03 03:39:49;;;;;;;20.88;11.40;;;4.60;99.90;;;;;;5059901;28;20028;-90
2022/03/03 03:42:14;;;;;;;16.35;11.27;;;4.50;99.90;;;;;;5059802;28;20500;-90
2022/03/03 03:44:40;;;;;;;19.63;10.73;;;4.60;99.90;;;;;;5059649;28;20391;-90
2022/03/03 03:47:07;;;;;;;16.80;10.90;;;4.50;99.90;;;;;;5059563;28;20039;-90
2022/03/03 03:49:33;;;;;;;17.77;10.77;;;4.50;99.90;;;;;;5059890;28;20029;-90
2022/03/03 03:51:59;;;;;;;19.98;10.95;;;4.50;99.90;;;;;;5060329;28;20017;-90
2022/03/03 03:54:25;;;;;;;18.25;10.60;;;4.50;99.90;;;;;;5059284;28;20035;-90
2022/03/03 03:56:51;;;;;;;20.73;11.35;;;4.50;99.90;;;;;;5059833;28;20417;-90
2022/03/03 03:59:17;;;;;;;18.55;11.50;;;4.50;99.90;;;;;;5059544;28;20021;-90
2022/03/03 04:01:42;;;;;;;19.50;10.85;;;4.50;99.90;;;;;;5059722;28;20024;-90
2022/03/03 04:04:08;;;;;;;16.83;11.07;;;4.50;99.90;;;;;;5067650;28;20131;-90
2022/03/03 04:06:36;;;;;;;17.73;11.25;;;4.50;99.90;;;;;;5076097;28;20028;-90
2022/03/03 04:09:02;;;;;;;17.48;10.82;;;4.50;99.90;;;;;;5075857;28;20087;-91
2022/03/03 04:11:27;;;;;;;18.42;10.38;;;4.50;99.90;;;;;;5075946;28;20506;-91
2022/03/03 04:13:56;;;;;;;16.20;11.02;;;4.50;99.90;;;;;;5075865;28;20111;-91
2022/03/03 04:16:23;;;;;;;17.48;10.68;;;4.50;99.90;;;;;;5075944;28;20027;-90
2022/03/03 04:18:48;;;;;;;17.67;11.10;;;4.50;99.90;;;;;;5075915;28;20021;-91
2022/03/03 04:21:14;;;;;;;19.13;11.40;;;4.50;99.90;;;;;;5075847;28;20032;-90
2022/03/03 04:23:40;;;;;;;14.73;9.73;;;4.50;99.90;;;;;;5075910;28;20509;-90
2022/03/03 04:26:06;;;;;;;19.42;11.10;;;4.40;99.90;;;;;;5076361;28;20452;-91
2022/03/03 04:28:32;;;;;;;20.75;11.35;;;4.40;99.90;;;;;;5075564;28;20489;-90
2022/03/03 04:30:57;;;;;;;17.27;11.05;;;4.40;99.90;;;;;;5075685;28;20039;-91
2022/03/03 04:33:23;;;;;;;16.88;10.75;;;4.40;99.90;;;;;;5075648;28;20032;-90
2022/03/03 04:35:50;;;;;;;16.23;11.32;;;4.40;99.90;;;;;;5075583;28;20024;-91
2022/03/03 04:38:16;;;;;;;18.55;11.48;;;4.40;99.90;;;;;;5075497;28;20023;-91
2022/03/03 04:40:42;;;;;;;17.75;11.65;;;4.40;99.90;;;;;;5075899;28;20029;-91
2022/03/03 04:43:08;;;;;;;16.05;10.40;;;4.40;99.90;;;;;;5075868;28;20549;-91
2022/03/03 04:45:34;;;;;;;22.40;10.88;;;4.40;99.90;;;;;;5075478;28;20395;-91
2022/03/03 04:48:00;;;;;;;21.45;12.10;;;4.40;99.90;;;;;;5075598;28;20028;-91
2022/03/03 04:50:26;;;;;;;17.60;10.75;;;4.40;99.90;;;;;;5075845;28;20057;-91
2022/03/03 04:52:52;;;;;;;17.00;10.88;;;4.30;99.90;;;;;;5075853;28;20029;-91
2022/03/03 04:55:18;;;;;;;17.83;10.68;;;4.40;99.90;;;;;;5075270;28;20476;-91
2022/03/03 04:57:45;;;;;;;15.88;11.15;;;4.40;99.90;;;;;;5075563;28;20103;-91
2022/03/03 05:00:11;;;;;;;19.42;11.50;;;4.40;99.90;;;;;;5075271;28;20498;-91
2022/03/03 05:02:37;;;;;;;19.35;11.57;;;4.30;99.90;;;;;;5075427;28;20206;-91
2022/03/03 05:05:05;;;;;;;19.90;12.07;;;4.30;99.90;;;;;;5075106;28;20051;-91
2022/03/03 05:07:31;;;;;;;20.85;11.55;;;4.30;99.90;;;;;;5075059;28;20108;-91
2022/03/03 05:09:57;;;;;;;18.17;11.05;;;4.30;99.90;;;;;;5075170;28;20071;-91
2022/03/03 05:12:23;;;;;;;19.10;11.30;;;4.30;99.90;;;;;;5074987;28;20024;-91
2022/03/03 05:14:48;;;;;;;19.48;11.25;;;4.30;99.90;;;;;;5074813;28;20032;-91
2022/03/03 05:17:14;;;;;;;22.20;11.60;;;4.30;99.90;;;;;;5075065;28;20065;-91
2022/03/03 05:19:40;;;;;;;19.73;11.32;;;4.30;99.90;;;;;;5074932;28;20490;-91
2022/03/03 05:22:05;;;;;;;19.13;11.73;;;4.30;99.90;;;;;;5075147;28;20021;-90
2022/03/03 05:24:31;;;;;;;21.80;11.85;;;4.30;99.90;;;;;;5074805;28;20024;-91
2022/03/03 05:26:57;;;;;;;21.15;11.52;;;4.30;99.90;;;;;;5074675;28;20025;-91
2022/03/03 05:29:23;;;;;;;18.58;11.23;;;4.30;99.90;;;;;;5075010;28;20028;-92
2022/03/03 05:31:49;;;;;;;19.55;11.18;;;4.30;99.90;;;;;;5075219;28;20047;-91
2022/03/03 05:34:14;;;;;;;18.85;11.75;;;4.30;99.90;;;;;;5074405;28;20077;-92
2022/03/03 05:36:41;;;;;;;20.42;11.77;;;4.20;99.90;;;;;;5073782;28;20016;-91
2022/03/03 05:39:08;;;;;;;20.02;11.90;;;4.30;99.90;;;;;;5073522;28;20024;-92
2022/03/03 05:41:34;;;;;;;19.30;11.27;;;4.20;99.90;;;;;;5074091;28;20016;-91
2022/03/03 05:44:00;;;;;;;22.92;11.98;;;4.20;99.90;;;;;;5074335;28;20052;-92
2022/03/03 05:46:26;;;;;;;20.25;11.88;;;4.20;99.90;;;;;;5074043;28;20025;-92
2022/03/03 05:48:52;;;;;;;20.27;11.63;;;4.20;99.90;;;;;;5074761;28;20029;-92
2022/03/03 05:51:19;;;;;;;20.83;11.60;;;4.20;99.90;;;;;;5074591;28;20024;-92
2022/03/03 05:53:45;;;;;;;20.08;11.88;;;4.20;99.90;;;;;;5074632;28;20039;-92
2022/03/03 05:56:14;;;;;;;19.63;11.88;;;4.20;99.90;;;;;;5073590;28;20051;-92
2022/03/03 05:58:42;;;;;;;19.05;12.00;;;4.20;99.90;;;;;;5073592;28;20017;-92
2022/03/03 06:01:10;;;;;;;18.45;11.48;;;4.20;99.90;;;;;;5073588;28;20024;-93
2022/03/03 06:03:37;;;;;;;21.48;10.75;;;4.20;99.90;;;;;;5073280;28;20408;-92
2022/03/03 06:06:14;;;;;;;19.60;11.60;;;4.20;99.90;;;;;;5074596;28;20395;-92
2022/03/03 06:08:42;;;;;;;20.33;11.48;;;4.20;99.90;;;;;;5073499;28;20111;-92
2022/03/03 06:11:14;;;;;;;22.30;12.43;;;4.20;99.90;;;;;;5074510;28;20070;-92
2022/03/03 06:13:46;;;;;;;21.77;12.25;;;4.20;99.90;;;;;;5073375;28;20032;-93
2022/03/03 06:16:17;;;;;;;18.73;12.30;;;4.20;99.90;;;;;;5074252;28;20474;-93
2022/03/03 06:18:49;;;;;;;23.92;13.27;;;4.20;99.90;;;;;;5073504;28;20030;-92
2022/03/03 06:21:18;;;;;;;22.00;12.95;;;4.20;99.90;;;;;;5074337;28;20020;-93
2022/03/03 06:23:44;;;;;;;25.20;13.00;;;4.20;99.90;;;;;;5073505;28;20035;-92
2022/03/03 06:26:19;;;;;;;20.80;12.90;;;4.20;99.90;;;;;;5073199;28;20024;-92
2022/03/03 06:28:46;;;;;;;21.88;12.52;;;4.20;99.90;;;;;;5074257;28;20024;-92
2022/03/03 06:31:13;;;;;;;24.95;13.45;;;4.20;99.90;;;;;;5073265;28;20051;-92
2022/03/03 06:33:40;;;;;;;23.20;13.57;;;4.20;99.90;;;;;;5074186;28;20105;-92
2022/03/03 06:36:06;;;;;;;22.83;12.93;;;4.20;99.90;;;;;;5073002;28;20107;-92
2022/03/03 06:38:33;;;;;;;20.63;13.02;;;4.20;99.90;;;;;;5073077;28;20020;-92
2022/03/03 06:40:59;;;;;;;18.65;11.93;;;4.30;99.90;;;;;;5073067;28;20020;-92
2022/03/03 06:43:29;;;;;;;19.98;13.05;;;4.40;99.90;;;;;;5073271;28;20074;-92
2022/03/03 06:45:56;;;;;;;22.90;13.38;;;4.40;99.90;;;;;;5072937;28;20395;-92
2022/03/03 06:48:22;;;;;;;21.67;13.45;;;4.60;99.90;;;;;;5072802;28;20115;-92
2022/03/03 06:50:52;;;;;;;19.60;12.48;;;4.80;99.90;;;;;;5072956;28;20111;-92
2022/03/03 06:53:25;;;;;;;23.13;12.82;;;4.90;99.90;;;;;;5072900;28;20040;-92
2022/03/03 06:55:52;;;;;;;20.23;12.38;;;5.20;99.80;;;;;;5073150;28;20021;-92
2022/03/03 06:58:22;;;;;;;19.52;13.02;;;5.60;99.40;;;;;;5072887;28;20033;-92
2022/03/03 07:00:52;;;;;;;22.10;13.23;;;5.90;98.90;;;;;;5072812;28;20070;-92
2022/03/03 07:03:21;;;;;;;19.92;12.70;;;6.20;98.40;;;;;;5073726;28;20119;-92
2022/03/03 07:05:47;;;;;;;24.30;12.82;;;6.40;98.10;;;;;;5073965;28;20020;-91
2022/03/03 07:08:14;;;;;;;19.60;12.00;;;6.60;97.70;;;;;;5055884;28;20020;-90
2022/03/03 07:10:39;;;;;;;22.17;13.48;;;6.80;97.50;;;;;;5073923;28;20021;-91
2022/03/03 07:13:05;;;;;;;21.13;12.75;;;6.80;97.40;;;;;;5055979;28;20031;-89
2022/03/03 07:15:34;;;;;;;20.60;12.77;;;6.70;97.40;;;;;;5055782;28;20027;-91
2022/03/03 07:18:11;;;;;;;21.25;12.52;;;6.50;97.50;;;;;;5055632;28;20021;-91
2022/03/03 07:20:43;;;;;;;21.40;12.45;;;6.40;97.70;;;;;;5055960;28;20029;-90
2022/03/03 07:23:27;;;;;;;22.15;12.95;;;6.40;97.80;;;;;;5055392;28;20028;-90
2022/03/03 07:25:58;;;;;;;20.92;12.60;;;6.40;97.80;;;;;;5055449;28;20058;-90
2022/03/03 07:28:27;;;;;;;20.95;12.02;;;6.40;97.90;;;;;;5055365;28;20044;-90
2022/03/03 07:30:53;;;;;;;20.92;12.50;;;6.40;97.90;;;;;;5055279;28;20024;-90
2022/03/03 07:33:27;;;;;;;18.25;11.50;;;6.40;98.00;;;;;;5055063;28;20025;-90
2022/03/03 07:35:56;;;;;;;18.75;12.18;;;6.40;98.00;;;;;;5055259;28;20028;-90
2022/03/03 07:38:26;;;;;;;17.92;11.48;;;6.40;98.00;;;;;;5055115;28;20498;-89
2022/03/03 07:40:52;;;;;;;17.38;11.80;;;6.50;98.00;;;;;;5054895;28;20025;-88
2022/03/03 07:43:19;;;;;;;18.17;11.63;;;6.50;98.00;;;;;;5055005;28;20483;-89
2022/03/03 07:45:46;;;;;;;15.57;11.15;;;6.50;98.00;;;;;;5054837;28;20020;-89
2022/03/03 07:48:12;;;;;;;17.05;11.70;;;6.40;98.00;;;;;;5055054;28;20028;-89
2022/03/03 07:50:40;;;;;;;22.17;12.07;;;6.40;98.20;;;;;;5072831;28;20039;-89
2022/03/03 07:53:07;;;;;;;17.85;11.82;;;6.40;98.30;;;;;;5054752;28;20142;-89
2022/03/03 07:55:45;;;;;;;21.83;11.85;;;6.30;98.30;;;;;;5072750;28;20476;-90
2022/03/03 07:58:26;;;;;;;18.73;11.88;;;6.40;98.40;;;;;;5054882;28;20017;-90
2022/03/03 08:00:57;;;;;;;20.77;12.30;;;6.40;98.30;;;;;;5074281;28;20032;-90
2022/03/03 08:03:23;;;;;;;16.60;11.90;;;6.60;98.30;;;;;;5060490;28;20064;-90
2022/03/03 08:05:52;;;;;;;17.58;11.32;;;6.60;98.20;;;;;;5076562;28;20078;-90
2022/03/03 08:08:22;;;;;;;17.40;11.43;;;6.70;98.20;;;;;;5076042;28;20464;-91
2022/03/03 08:10:48;;;;;;;18.90;11.88;;;6.70;98.10;;;;;;5075371;28;20082;-91
2022/03/03 08:13:16;;;;;;;19.15;12.07;;;6.90;98.20;;;;;;5075443;28;20024;-90
2022/03/03 08:15:44;;;;;;;17.50;11.52;;;6.90;98.20;;;;;;5076397;28;20027;-91
2022/03/03 08:18:11;;;;;;;16.85;11.48;;;6.90;98.20;;;;;;5076366;28;20036;-91
2022/03/03 08:20:38;;;;;;;19.17;11.63;;;6.90;98.10;;;;;;5075115;28;20024;-90
2022/03/03 08:23:05;;;;;;;17.85;11.48;;;7.00;98.10;;;;;;5074966;28;20042;-90
2022/03/03 08:25:31;;;;;;;16.80;10.90;;;7.00;98.10;;;;;;5074965;28;20035;-90
2022/03/03 08:27:57;;;;;;;17.42;11.48;;;7.00;98.10;;;;;;5076139;28;20107;-90
2022/03/03 08:30:23;;;;;;;21.10;12.02;;;7.10;98.10;;;;;;5074901;28;20029;-90
2022/03/03 08:33:05;;;;;;;18.30;12.05;;;7.20;98.10;;;;;;5076214;28;20107;-92
2022/03/03 08:35:36;;;;;;;20.25;11.50;;;7.20;98.20;;;;;;5075353;28;20028;-91
2022/03/03 08:38:06;;;;;;;17.98;11.82;;;7.20;98.20;;;;;;5075143;28;20029;-91
2022/03/03 08:40:34;;;;;;;18.50;12.13;;;7.20;98.30;;;;;;5075153;28;20052;-91
2022/03/03 08:43:03;;;;;;;21.50;11.43;;;7.30;98.40;;;;;;5074974;28;20119;-91
2022/03/03 08:45:32;;;;;;;19.88;12.25;;;7.30;98.50;;;;;;5074610;28;20024;-90
2022/03/03 08:48:01;;;;;;;22.20;12.50;;;7.30;98.50;;;;;;5074587;28;20388;-91
2022/03/03 08:50:28;;;;;;;22.00;12.60;;;7.40;98.50;;;;;;5074597;28;20430;-91
2022/03/03 08:52:58;;;;;;;19.63;12.07;;;7.30;98.40;;;;;;5074395;28;20021;-90
2022/03/03 08:55:25;;;;;;;18.17;11.95;;;7.30;98.50;;;;;;5075811;28;20024;-90
2022/03/03 08:57:51;;;;;;;18.70;11.93;;;7.40;98.60;;;;;;5075731;28;20040;-91
2022/03/03 09:00:17;;;;;;;18.67;10.75;;;7.40;98.60;;;;;;5074562;28;20028;-90
2022/03/03 09:02:43;;;;;;;21.08;12.00;;;7.40;98.50;;;;;;5074793;28;20541;-91
2022/03/03 09:05:10;;;;;;;19.20;11.90;;;7.40;98.60;;;;;;5073994;28;20437;-89
2022/03/03 09:07:37;;;;;;;21.63;12.68;;;7.40;98.60;;;;;;5074093;28;20400;-89
2022/03/03 09:10:04;;;;;;;18.25;12.23;;;7.40;98.70;;;;;;5074178;28;20122;-90
2022/03/03 09:12:30;;;;;;;22.55;12.90;;;7.40;98.70;;;;;;5074325;28;20403;-91
2022/03/03 09:14:56;;;;;;;20.98;12.45;;;7.40;98.90;;;;;;5075850;28;20024;-91
2022/03/03 09:17:21;;;;;;;20.52;12.93;;;7.40;98.90;;;;;;5074227;28;20062;-90
2022/03/03 09:19:47;;;;;;;22.02;12.68;;;7.40;98.80;;;;;;5074109;28;20024;-90
2022/03/03 09:22:13;;;;;;;20.25;13.02;;;7.50;99.00;;;;;;5075589;28;20021;-90
2022/03/03 09:24:39;;;;;;;20.85;11.95;;;7.50;99.00;;;;;;5074009;28;20098;-90
2022/03/03 09:27:05;;;;;;;20.63;13.02;;;7.50;98.90;;;;;;5073863;28;20028;-89
2022/03/03 09:29:34;;;;;;;25.70;12.57;;;7.60;99.00;;;;;;5073771;28;20024;-89
2022/03/03 09:32:04;;;;;;;18.55;11.80;;;7.60;98.90;;;;;;5073934;28;20523;-90
2022/03/03 09:34:30;;;;;;;23.15;12.77;;;7.70;98.80;;;;;;5074004;28;20047;-90
2022/03/03 09:36:59;;;;;;;18.83;12.10;;;7.70;98.70;;;;;;5073565;28;20063;-90
2022/03/03 09:39:25;;;;;;;18.65;12.45;;;7.70;98.70;;;;;;5073640;28;20410;-90
2022/03/03 09:41:52;;;;;;;24.92;13.20;;;7.70;98.70;;;;;;5073714;28;20410;-91
2022/03/03 09:44:22;;;;;;;22.13;12.75;;;7.80;98.60;;;;;;5074137;28;20391;-91
2022/03/03 09:46:48;;;;;;;22.13;12.48;;;7.80;98.60;;;;;;5073992;28;20032;-90
2022/03/03 09:49:14;;;;;;;22.33;12.40;;;7.90;98.60;;;;;;5074030;28;20029;-91
2022/03/03 09:51:40;;;;;;;17.85;12.18;;;7.90;98.70;;;;;;5073749;28;20479;-90
2022/03/03 09:54:06;;;;;;;23.80;12.63;;;7.90;98.60;;;;;;5073814;28;20032;-91
2022/03/03 09:56:32;;;;;;;20.02;12.48;;;7.90;98.60;;;;;;5074424;28;20021;-89
2022/03/03 09:58:58;;;;;;;21.77;12.75;;;8.00;98.70;;;;;;5073225;28;20074;-90
2022/03/03 10:01:28;;;;;;;21.02;13.48;;;8.00;98.80;;;;;;5073036;28;20122;-88
2022/03/03 10:03:54;;;;;;;17.92;12.18;;;8.00;98.80;;;;;;5073077;28;20048;-91
2022/03/03 10:06:23;;;;;;;18.95;12.13;;;8.00;98.80;;;;;;5073412;28;20024;-89
2022/03/03 10:08:50;;;;;;;22.70;13.50;;;8.10;98.80;;;;;;5073141;28;20059;-90
2022/03/03 10:11:16;;;;;;;22.98;13.13;;;8.10;98.80;;;;;;5074272;28;20099;-90
2022/03/03 10:13:45;;;;;;;23.02;12.82;;;8.10;98.60;;;;;;5072980;28;20116;-90
2022/03/03 10:16:11;;;;;;;20.80;12.25;;;8.20;98.30;;;;;;5073134;28;20115;-90
2022/03/03 10:18:37;;;;;;;21.08;12.40;;;8.20;98.20;;;;;;5072701;28;20059;-89
2022/03/03 10:21:04;;;;;;;18.77;12.18;;;8.20;98.10;;;;;;5072910;28;20485;-90
2022/03/03 10:23:36;;;;;;;20.13;12.48;;;8.20;97.90;;;;;;5072068;28;20112;-89
2022/03/03 10:26:05;;;;;;;20.50;12.68;;;8.20;97.70;;;;;;5074142;28;20074;-89
2022/03/03 10:28:33;;;;;;;21.40;13.45;;;8.30;97.90;;;;;;5072495;28;20035;-90
2022/03/03 10:31:06;;;;;;;22.35;13.13;;;8.30;97.80;;;;;;5073972;28;20054;-89
2022/03/03 10:33:40;;;;;;;21.25;12.20;;;8.30;97.70;;;;;;5073813;28;20480;-89
2022/03/03 10:36:11;;;;;;;22.75;11.70;;;8.30;98.10;;;;;;5073782;28;20421;-89
2022/03/03 10:38:58;;;;;;;21.50;13.07;;;8.40;97.80;;;;;;5072564;28;20024;-90
2022/03/03 10:41:34;;;;;;;20.50;12.65;;;8.40;97.80;;;;;;5072452;28;20021;-89
2022/03/03 10:44:06;;;;;;;21.40;12.45;;;8.40;97.70;;;;;;5072354;28;20073;-89
2022/03/03 10:46:33;;;;;;;24.83;13.70;;;8.40;97.90;;;;;;5073234;28;20028;-88
2022/03/03 10:48:59;;;;;;;19.75;12.43;;;8.40;98.00;;;;;;5073563;28;20388;-88
2022/03/03 10:51:25;;;;;;;20.90;13.43;;;8.40;98.00;;;;;;5073932;28;20025;-90
2022/03/03 10:54:02;;;;;;;21.33;13.48;;;8.50;98.00;;;;;;5072421;28;20024;-90
2022/03/03 10:56:28;;;;;;;21.45;13.25;;;8.50;98.00;;;;;;5072528;28;20036;-88
2022/03/03 10:58:57;;;;;;;26.38;14.77;;;8.50;98.00;;;;;;5072710;28;20025;-90
2022/03/03 11:01:26;;;;;;;27.27;15.07;;;8.60;98.20;;;;;;5073011;28;20048;-91
2022/03/03 11:03:53;;;;;;;22.55;13.93;;;8.60;98.20;;;;;;5071712;28;20064;-89
2022/03/03 11:06:24;;;;;;;24.58;14.43;;;8.60;98.20;;;;;;5073877;28;20079;-91
2022/03/03 11:08:51;;;;;;;21.73;13.32;;;8.60;98.20;;;;;;5072741;28;20059;-91
2022/03/03 11:11:18;;;;;;;26.58;14.85;;;8.70;98.20;;;;;;5073781;28;20055;-90
2022/03/03 11:13:47;;;;;;;26.23;13.48;;;8.70;98.20;;;;;;5072480;28;20025;-88
2022/03/03 11:16:15;;;;;;;23.58;14.65;;;8.70;98.40;;;;;;5072342;28;20048;-88
2022/03/03 11:18:42;;;;;;;23.77;14.35;;;8.70;98.40;;;;;;5072126;28;20032;-89
2022/03/03 11:21:08;;;;;;;21.63;13.68;;;8.70;98.40;;;;;;5072230;28;20021;-89
2022/03/03 11:23:56;;;;;;;22.77;13.32;;;8.80;98.30;;;;;;5071902;28;20063;-88
2022/03/03 11:26:40;;;;;;;23.08;14.10;;;8.80;98.30;;;;;;5071887;28;20054;-87
2022/03/03 11:29:13;;;;;;;;;;;8.80;98.20;;;;;;5072306;28;20540;-88
2022/03/03 11:31:59;;;;;;;21.70;13.05;;;8.80;98.10;;;;;;5072118;28;19905;-88
2022/03/03 11:34:27;;;;;;;23.33;13.23;;;8.90;98.00;;;;;;5073830;28;20028;-90
2022/03/03 11:37:37;;;;;;;23.45;13.20;;;8.90;98.30;;;;;;5075010;28;20041;-90
2022/03/03 11:40:04;;;;;;;23.05;13.50;;;8.90;97.90;;;;;;4979590;28;20027;-90
2022/03/03 11:42:29;;;;;;;20.65;13.07;;;8.90;97.90;;;;;;5061968;28;20025;-90
2022/03/03 11:44:59;;;;;;;24.30;13.93;;;8.90;97.80;;;;;;5075643;28;20119;-89
2022/03/03 11:47:30;;;;;;;20.48;12.98;;;8.90;97.80;;;;;;5075611;28;20139;-89
2022/03/03 11:50:16;;;;;;;20.17;12.88;;;8.90;97.80;;;;;;5077052;28;20021;-90
2022/03/03 11:52:45;;;;;;;21.65;13.18;;;8.90;97.80;;;;;;5076994;28;20067;-89
2022/03/03 11:55:34;;;;;;;20.95;12.90;;;9.00;97.60;;;;;;5075016;28;20115;-83
2022/03/03 11:58:11;;;;;;;19.15;13.02;;;9.00;97.60;;;;;;5076492;28;20094;-83
2022/03/03 12:01:08;;;;;;;24.98;13.68;;;9.00;97.40;;;;;;5076597;28;20464;-83
2022/03/03 12:04:02;;;;;;;19.83;12.07;;;9.00;97.40;;;;;;5074749;28;20048;-83
2022/03/03 12:06:43;;;;;;;22.00;12.57;;;9.00;97.30;;;;;;5074851;28;20024;-82
2022/03/03 12:09:33;;;;;;;20.08;12.07;;;9.00;97.20;;;;;;5074825;28;20116;-83
2022/03/03 12:12:17;;;;;;;18.55;11.40;;;9.00;97.10;;;;;;5076299;28;20535;-83
2022/03/03 12:15:04;;;;;;;21.77;13.07;;;9.00;97.20;;;;;;5074665;28;20625;-83
2022/03/03 12:17:40;;;;;;;22.65;12.77;;;9.10;97.20;;;;;;5075911;28;20020;-83
2022/03/03 12:20:24;;;;;;;21.65;12.50;;;9.10;97.10;;;;;;5076262;28;20055;-83
2022/03/03 12:23:18;;;;;;;22.50;12.60;;;9.10;96.80;;;;;;5074621;28;20051;-83
2022/03/03 12:25:50;;;;;;;19.55;12.15;;;9.20;96.80;;;;;;5074614;28;20028;-83
2022/03/03 12:28:35;;;;;;;19.33;12.23;;;9.20;96.80;;;;;;5074460;28;20458;-83
2022/03/03 12:31:02;;;;;;;;;;;9.20;97.10;;;;;;5075018;28;20032;-83
2022/03/03 12:33:32;;;;;;;22.85;13.63;;;9.30;96.80;;;;;;5077390;28;19940;-83
2022/03/03 12:36:02;;;;;;;23.58;14.07;;;9.70;93.70;;;;;;5075262;28;20016;-83
2022/03/03 12:38:29;;;;;;;24.85;13.93;;;9.80;94.20;;;;;;5074445;28;20439;-83
2022/03/03 12:40:55;;;;;;;23.20;14.27;;;9.80;94.50;;;;;;5074267;28;20468;-83
2022/03/03 12:43:21;;;;;;;28.23;13.93;;;9.70;94.60;;;;;;5074170;28;20024;-83
2022/03/03 12:45:48;;;;;;;22.77;14.25;;;9.60;94.80;;;;;;5074083;28;20029;-83